createdAt,value
2017-12-21T00:00:23.597Z,27.00
2017-12-21T00:02:52.442Z,29.30
2017-12-21T00:05:21.286Z,28.70
2017-12-21T00:07:50.144Z,31.37
2017-12-21T00:10:19.754Z,30.20
2017-12-21T00:12:49.366Z,29.40
2017-12-21T00:15:18.998Z,29.70
2017-12-21T00:17:47.835Z,31.07
2017-12-21T00:20:16.678Z,29.37
2017-12-21T00:22:45.522Z,24.00
2017-12-21T00:25:15.142Z,28.50
2017-12-21T00:27:44.750Z,27.17
2017-12-21T00:30:14.356Z,28.07
2017-12-21T00:32:43.438Z,32.97
2017-12-21T00:35:13.047Z,28.03
2017-12-21T00:37:41.910Z,33.70
2017-12-21T00:40:11.501Z,29.43
2017-12-21T00:42:41.124Z,26.63
2017-12-21T00:45:10.752Z,30.30
2017-12-21T00:47:39.602Z,31.67
2017-12-21T00:50:08.439Z,31.10
2017-12-21T00:52:37.290Z,30.37
2017-12-21T00:55:06.163Z,30.87
2017-12-21T00:57:34.986Z,28.90
2017-12-21T01:00:04.596Z,25.93
2017-12-21T01:02:34.230Z,28.60
2017-12-21T01:05:03.806Z,33.57
2017-12-21T01:07:33.414Z,26.07
2017-12-21T01:10:02.291Z,25.87
2017-12-21T01:12:32.631Z,28.47
2017-12-21T01:15:02.235Z,27.73
2017-12-21T01:17:31.842Z,28.07
2017-12-21T01:20:01.497Z,30.90
2017-12-21T01:22:30.368Z,28.90
2017-12-21T01:24:59.224Z,26.03
2017-12-21T01:27:28.847Z,25.23
2017-12-21T01:29:57.673Z,27.93
2017-12-21T01:32:26.539Z,31.30
2017-12-21T01:34:55.373Z,27.53
2017-12-21T01:37:25.627Z,32.50
2017-12-21T01:39:54.808Z,28.53
2017-12-21T01:42:25.230Z,31.50
2017-12-21T01:44:54.859Z,27.87
2017-12-21T01:47:24.474Z,26.57
2017-12-21T01:49:53.337Z,29.30
2017-12-21T01:52:22.966Z,27.33
2017-12-21T01:54:51.823Z,26.30
2017-12-21T01:57:20.659Z,25.53
2017-12-21T01:59:49.503Z,24.43
2017-12-21T02:02:18.350Z,24.53
2017-12-21T02:04:47.223Z,22.60
2017-12-21T02:07:16.806Z,23.57
2017-12-21T02:09:46.442Z,26.43
2017-12-21T02:12:15.315Z,25.57
2017-12-21T02:14:44.920Z,23.13
2017-12-21T02:17:14.550Z,24.07
2017-12-21T02:19:43.409Z,25.23
2017-12-21T02:22:13.018Z,24.17
2017-12-21T02:24:42.660Z,23.17
2017-12-21T02:27:11.490Z,23.63
2017-12-21T02:29:40.342Z,23.90
2017-12-21T02:32:09.223Z,22.80
2017-12-21T02:34:38.072Z,26.00
2017-12-21T02:37:07.680Z,25.20
2017-12-21T02:39:37.294Z,22.43
2017-12-21T02:42:06.904Z,22.10
2017-12-21T02:44:36.506Z,24.50
2017-12-21T02:47:06.123Z,23.97
2017-12-21T02:49:35.724Z,27.30
2017-12-21T02:52:05.355Z,24.90
2017-12-21T02:54:34.186Z,24.80
2017-12-21T02:57:03.030Z,24.03
2017-12-21T02:59:32.663Z,26.90
2017-12-21T03:02:01.490Z,25.10
2017-12-21T03:04:31.103Z,26.73
2017-12-21T03:07:00.718Z,27.63
2017-12-21T03:09:30.350Z,31.57
2017-12-21T03:11:59.199Z,37.03
2017-12-21T03:14:28.030Z,38.90
2017-12-21T03:16:56.853Z,41.40
2017-12-21T03:19:25.707Z,45.60
2017-12-21T03:21:54.547Z,45.00
2017-12-21T03:24:23.389Z,46.97
2017-12-21T03:26:52.230Z,44.47
2017-12-21T03:29:21.087Z,49.03
2017-12-21T03:31:49.931Z,49.17
2017-12-21T03:34:19.541Z,44.30
2017-12-21T03:36:49.146Z,50.00
2017-12-21T03:39:18.003Z,47.50
2017-12-21T03:41:46.846Z,46.73
2017-12-21T03:44:16.465Z,45.17
2017-12-21T03:46:46.093Z,48.63
2017-12-21T03:49:14.935Z,42.73
2017-12-21T03:51:44.570Z,43.93
2017-12-21T03:54:14.221Z,44.20
2017-12-21T03:56:43.040Z,38.47
2017-12-21T03:59:11.886Z,39.97
2017-12-21T04:01:40.730Z,40.40
2017-12-21T04:04:10.347Z,45.67
2017-12-21T04:06:39.986Z,40.20
2017-12-21T04:09:08.838Z,41.60
2017-12-21T04:11:38.450Z,44.37
2017-12-21T04:14:08.067Z,41.50
2017-12-21T04:16:37.690Z,38.47
2017-12-21T04:19:06.537Z,36.50
2017-12-21T04:21:36.139Z,36.00
2017-12-21T04:24:05.036Z,37.00
2017-12-21T04:26:33.866Z,38.60
2017-12-21T04:29:02.711Z,31.67
2017-12-21T04:31:31.664Z,32.53
2017-12-21T04:34:01.340Z,34.40
2017-12-21T04:36:30.950Z,32.20
2017-12-21T04:39:00.554Z,35.30
2017-12-21T04:41:30.178Z,34.90
2017-12-21T04:43:59.040Z,39.47
2017-12-21T04:46:28.638Z,33.67
2017-12-21T04:48:58.299Z,33.57
2017-12-21T04:51:27.150Z,33.90
2017-12-21T04:53:56.780Z,37.67
2017-12-21T04:56:25.775Z,34.20
2017-12-21T04:58:54.591Z,37.70
2017-12-21T05:01:23.450Z,36.63
2017-12-21T05:03:52.295Z,34.83
2017-12-21T05:06:21.150Z,37.70
2017-12-21T05:08:49.993Z,37.93
2017-12-21T05:11:19.635Z,38.83
2017-12-21T05:13:48.474Z,37.47
2017-12-21T05:16:18.130Z,41.80
2017-12-21T05:18:47.731Z,44.00
2017-12-21T05:21:16.599Z,43.30
2017-12-21T05:23:46.515Z,40.97
2017-12-21T05:26:16.126Z,43.20
2017-12-21T05:28:45.750Z,44.27
2017-12-21T05:31:14.603Z,43.80
2017-12-21T05:33:44.219Z,46.20
2017-12-21T05:36:13.830Z,43.70
2017-12-21T05:38:43.437Z,43.17
2017-12-21T05:41:13.074Z,43.90
2017-12-21T05:43:41.927Z,41.43
2017-12-21T05:46:10.771Z,41.40
2017-12-21T05:48:39.637Z,39.97
2017-12-21T05:51:08.549Z,38.07
2017-12-21T05:53:38.106Z,43.40
2017-12-21T05:56:07.723Z,39.10
2017-12-21T05:58:37.342Z,40.73
2017-12-21T06:01:06.205Z,39.67
2017-12-21T06:03:35.808Z,40.47
2017-12-21T06:06:05.518Z,35.53
2017-12-21T06:08:34.355Z,38.60
2017-12-21T06:11:03.230Z,39.67
2017-12-21T06:13:32.829Z,39.40
2017-12-21T06:16:02.454Z,39.83
2017-12-21T06:18:31.341Z,38.50
2017-12-21T06:21:00.136Z,38.40
2017-12-21T06:23:29.002Z,36.03
2017-12-21T06:25:57.843Z,39.90
2017-12-21T06:28:26.706Z,37.60
2017-12-21T06:30:55.554Z,38.97
2017-12-21T06:33:25.406Z,40.87
2017-12-21T06:35:54.986Z,33.80
2017-12-21T06:38:24.635Z,35.63
2017-12-21T06:40:53.451Z,33.70
2017-12-21T06:43:23.279Z,34.03
2017-12-21T06:45:52.348Z,34.67
2017-12-21T06:48:21.203Z,35.43
2017-12-21T06:50:50.030Z,35.53
2017-12-21T06:53:18.883Z,31.43
2017-12-21T06:55:47.735Z,35.10
2017-12-21T06:58:17.361Z,33.83
2017-12-21T07:00:47.072Z,36.50
2017-12-21T07:03:15.922Z,37.53
2017-12-21T07:05:45.567Z,35.03
2017-12-21T07:08:15.157Z,37.67
2017-12-21T07:10:44.796Z,37.33
2017-12-21T07:13:13.628Z,36.80
2017-12-21T07:15:42.461Z,35.40
2017-12-21T07:18:11.319Z,34.83
2017-12-21T07:20:40.959Z,34.80
2017-12-21T07:23:10.428Z,33.33
2017-12-21T07:25:39.251Z,32.13
2017-12-21T07:28:08.090Z,31.90
2017-12-21T07:30:36.933Z,32.30
2017-12-21T07:33:05.771Z,32.27
2017-12-21T07:35:34.614Z,32.23
2017-12-21T07:38:03.511Z,31.30
2017-12-21T07:40:32.373Z,32.43
2017-12-21T07:43:01.224Z,33.43
2017-12-21T07:45:30.059Z,29.33
2017-12-21T07:47:58.913Z,31.23
2017-12-21T07:50:28.494Z,29.47
2017-12-21T07:52:57.412Z,29.17
2017-12-21T07:55:27.047Z,37.30
2017-12-21T07:57:56.622Z,27.67
2017-12-21T08:00:26.230Z,28.30
2017-12-21T08:02:55.880Z,30.30
2017-12-21T08:05:24.744Z,27.43
2017-12-21T08:07:54.360Z,28.80
2017-12-21T08:10:23.203Z,24.77
2017-12-21T08:12:52.042Z,27.53
2017-12-21T08:15:20.890Z,26.33
2017-12-21T08:17:50.513Z,26.20
2017-12-21T08:20:20.124Z,25.50
2017-12-21T08:22:49.738Z,29.23
2017-12-21T08:25:19.363Z,25.80
2017-12-21T08:27:48.226Z,23.80
2017-12-21T08:30:17.849Z,22.37
2017-12-21T08:32:46.703Z,25.27
2017-12-21T08:35:15.538Z,21.77
2017-12-21T08:37:44.396Z,25.80
2017-12-21T08:40:14.012Z,22.33
2017-12-21T08:42:43.387Z,23.10
2017-12-21T08:45:13.063Z,24.87
2017-12-21T08:47:41.823Z,23.00
2017-12-21T08:50:10.683Z,21.30
2017-12-21T08:52:39.547Z,21.80
2017-12-21T08:55:09.178Z,21.70
2017-12-21T08:57:37.995Z,21.30
2017-12-21T09:00:07.490Z,20.47
2017-12-21T09:02:36.474Z,20.07
2017-12-21T09:05:05.309Z,21.23
2017-12-21T09:07:34.522Z,19.60
2017-12-21T09:10:04.136Z,16.63
2017-12-21T09:12:33.797Z,19.20
2017-12-21T09:15:02.634Z,18.07
2017-12-21T09:17:32.253Z,16.37
2017-12-21T09:20:01.096Z,17.27
2017-12-21T09:22:29.944Z,17.60
2017-12-21T09:24:58.783Z,15.70
2017-12-21T09:27:27.619Z,16.73
2017-12-21T09:29:56.474Z,15.90
2017-12-21T09:32:25.298Z,15.20
2017-12-21T09:34:55.414Z,16.40
2017-12-21T09:37:24.237Z,16.60
2017-12-21T09:39:53.090Z,14.50
2017-12-21T09:42:22.694Z,16.83
2017-12-21T09:44:52.339Z,16.27
2017-12-21T09:47:21.223Z,15.70
2017-12-21T09:49:50.068Z,16.13
2017-12-21T09:52:18.927Z,17.50
2017-12-21T09:54:47.775Z,16.37
2017-12-21T09:57:17.454Z,17.53
2017-12-21T09:59:46.268Z,16.90
2017-12-21T10:02:15.902Z,16.53
2017-12-21T10:04:44.772Z,19.90
2017-12-21T10:07:14.379Z,20.10
2017-12-21T10:09:44.005Z,19.10
2017-12-21T10:12:12.869Z,19.67
2017-12-21T10:14:42.892Z,21.07
2017-12-21T10:17:12.507Z,24.20
2017-12-21T10:19:42.112Z,22.90
2017-12-21T10:22:11.714Z,25.00
2017-12-21T10:24:41.315Z,24.57
2017-12-21T10:27:10.946Z,26.93
2017-12-21T10:29:39.798Z,25.77
2017-12-21T10:32:10.186Z,25.00
2017-12-21T10:34:39.766Z,27.03
2017-12-21T10:37:08.607Z,28.17
2017-12-21T10:39:37.456Z,28.30
2017-12-21T10:42:06.311Z,28.30
2017-12-21T10:44:35.179Z,27.00
2017-12-21T10:47:04.844Z,27.60
2017-12-21T10:49:33.806Z,28.60
2017-12-21T10:52:02.665Z,26.57
2017-12-21T10:54:32.983Z,25.93
2017-12-21T10:57:01.830Z,26.90
2017-12-21T10:59:30.715Z,25.83
2017-12-21T11:01:59.551Z,24.90
2017-12-21T11:04:28.383Z,24.33
2017-12-21T11:06:57.251Z,25.73
2017-12-21T11:09:26.120Z,28.20
2017-12-21T11:11:56.648Z,27.33
2017-12-21T11:14:26.309Z,27.27
2017-12-21T11:16:55.198Z,25.70
2017-12-21T11:19:30.325Z,27.37
2017-12-21T11:21:59.183Z,27.10
2017-12-21T11:24:28.019Z,25.10
2017-12-21T11:26:56.888Z,28.33
2017-12-21T11:29:25.783Z,26.80
2017-12-21T11:31:54.638Z,26.10
2017-12-21T11:34:24.261Z,27.27
2017-12-21T11:36:53.928Z,27.17
2017-12-21T11:39:24.070Z,28.60
2017-12-21T11:41:53.688Z,26.27
2017-12-21T11:44:22.528Z,26.53
2017-12-21T11:46:52.187Z,25.20
2017-12-21T11:49:21.839Z,26.70
2017-12-21T11:51:50.849Z,27.07
2017-12-21T11:54:19.698Z,29.33
2017-12-21T11:56:49.435Z,26.80
2017-12-21T11:59:18.310Z,28.20
2017-12-21T12:01:47.161Z,37.77
2017-12-21T12:04:17.924Z,25.33
2017-12-21T12:06:47.545Z,27.60
2017-12-21T12:09:17.151Z,25.13
2017-12-21T12:11:46.015Z,29.37
2017-12-21T12:14:15.654Z,31.27
2017-12-21T12:16:44.542Z,28.37
2017-12-21T12:19:13.418Z,31.17
2017-12-21T12:21:43.032Z,32.87
2017-12-21T12:24:12.228Z,33.80
2017-12-21T12:26:41.081Z,36.87
2017-12-21T12:29:11.715Z,42.40
2017-12-21T12:31:40.588Z,38.47
2017-12-21T12:34:09.430Z,30.23
2017-12-21T12:36:39.063Z,31.57
2017-12-21T12:39:07.923Z,32.03
2017-12-21T12:41:37.538Z,32.33
2017-12-21T12:44:06.399Z,31.00
2017-12-21T12:46:36.020Z,31.70
2017-12-21T12:49:04.908Z,33.70
2017-12-21T12:51:33.766Z,28.17
2017-12-21T12:54:02.719Z,29.53
2017-12-21T12:56:31.576Z,33.50
2017-12-21T12:59:00.422Z,31.90
2017-12-21T13:01:30.162Z,32.77
2017-12-21T13:03:59.091Z,33.97
2017-12-21T13:06:27.943Z,30.70
2017-12-21T13:08:56.799Z,29.80
2017-12-21T13:11:25.648Z,29.90
2017-12-21T13:13:54.494Z,28.17
2017-12-21T13:16:23.342Z,32.20
2017-12-21T13:18:52.255Z,28.70
2017-12-21T13:21:21.079Z,30.20
2017-12-21T13:23:53.145Z,27.43
2017-12-21T13:26:23.176Z,27.47
2017-12-21T13:28:52.019Z,28.87
2017-12-21T13:31:20.858Z,33.00
2017-12-21T13:33:49.724Z,31.50
2017-12-21T13:36:19.366Z,32.07
2017-12-21T13:38:48.193Z,27.10
2017-12-21T14:55:51.917Z,27.30
2017-12-21T14:58:20.775Z,28.77
2017-12-21T15:00:50.409Z,26.37
2017-12-21T15:03:19.298Z,26.17
2017-12-21T15:05:48.133Z,27.80
2017-12-21T15:08:17.079Z,26.67
2017-12-21T15:10:46.024Z,26.07
2017-12-21T15:13:14.850Z,25.30
2017-12-21T15:15:43.702Z,27.83
2017-12-21T15:18:12.551Z,28.23
2017-12-21T15:20:41.402Z,25.87
2017-12-21T15:23:11.802Z,27.93
2017-12-21T15:25:40.635Z,24.50
2017-12-21T15:28:09.512Z,28.40
2017-12-21T15:30:39.095Z,28.07
2017-12-21T15:33:08.718Z,28.40
2017-12-21T15:35:38.395Z,29.07
2017-12-21T15:38:07.182Z,27.43
2017-12-21T15:40:36.247Z,28.80
2017-12-21T15:43:05.119Z,30.30
2017-12-21T15:45:33.974Z,29.47
2017-12-21T15:48:02.815Z,26.93
2017-12-21T15:50:31.641Z,32.53
2017-12-21T15:53:00.499Z,28.97
2017-12-21T15:55:29.346Z,32.17
2017-12-21T15:57:58.627Z,32.90
2017-12-21T16:00:27.664Z,29.93
2017-12-21T16:02:57.218Z,31.30
2017-12-21T16:05:26.087Z,30.37
2017-12-21T16:07:54.947Z,32.90
2017-12-21T16:10:24.561Z,32.37
2017-12-21T16:12:53.394Z,29.83
2017-12-21T16:15:22.239Z,33.10
2017-12-21T16:17:51.963Z,27.97
2017-12-21T16:20:20.804Z,29.27
2017-12-21T16:22:50.457Z,38.07
2017-12-21T16:25:19.290Z,29.97
2017-12-21T16:27:48.932Z,35.60
2017-12-21T16:30:18.545Z,32.73
2017-12-21T16:32:47.433Z,31.00
2017-12-21T16:35:17.178Z,29.23
2017-12-21T16:37:46.015Z,30.43
2017-12-21T16:40:15.618Z,28.90
2017-12-21T16:42:45.278Z,25.23
2017-12-21T16:45:14.115Z,30.30
2017-12-21T16:47:43.792Z,29.43
2017-12-21T16:50:12.687Z,32.17
2017-12-21T16:52:41.543Z,30.10
2017-12-21T16:55:10.416Z,32.13
2017-12-21T16:57:39.638Z,29.83
2017-12-21T17:00:08.518Z,31.93
2017-12-21T17:02:37.381Z,32.13
2017-12-21T17:05:06.287Z,32.13
2017-12-21T17:07:35.958Z,33.83
2017-12-21T17:10:04.815Z,31.27
2017-12-21T17:12:34.456Z,30.90
2017-12-21T17:15:03.297Z,30.10
2017-12-21T17:17:32.442Z,32.13
2017-12-21T17:20:01.327Z,33.47
2017-12-21T17:22:30.189Z,31.83
2017-12-21T17:24:59.799Z,32.43
2017-12-21T17:27:29.407Z,31.63
2017-12-21T17:29:59.044Z,31.90
2017-12-21T17:32:27.908Z,32.30
2017-12-21T17:34:56.987Z,30.57
2017-12-21T17:37:26.629Z,31.30
2017-12-21T17:39:55.560Z,32.53
2017-12-21T17:42:24.430Z,34.20
2017-12-21T17:44:54.164Z,34.00
2017-12-21T17:47:23.020Z,29.10
2017-12-21T17:49:52.230Z,34.07
2017-12-21T17:52:21.150Z,33.63
2017-12-21T17:54:49.971Z,30.30
2017-12-21T17:57:19.587Z,32.57
2017-12-21T17:59:48.454Z,33.23
2017-12-21T18:02:18.093Z,35.50
2017-12-21T18:04:46.978Z,30.10
2017-12-21T18:07:15.831Z,34.80
2017-12-21T18:09:45.521Z,31.80
2017-12-21T18:12:15.399Z,35.43
2017-12-21T18:14:44.254Z,34.23
2017-12-21T18:17:13.950Z,36.47
2017-12-21T18:19:42.788Z,36.47
2017-12-21T18:22:11.635Z,33.60
2017-12-21T18:24:41.271Z,31.47
2017-12-21T18:27:10.207Z,36.37
2017-12-21T18:29:39.073Z,35.10
2017-12-21T18:32:07.943Z,37.20
2017-12-21T18:34:36.782Z,35.90
2017-12-21T18:37:05.643Z,38.63
2017-12-21T18:39:34.490Z,36.70
2017-12-21T18:42:04.119Z,34.43
2017-12-21T18:44:32.962Z,38.73
2017-12-21T18:47:01.809Z,37.47
2017-12-21T18:49:30.676Z,34.10
2017-12-21T18:52:00.327Z,33.87
2017-12-21T18:54:31.805Z,33.07
2017-12-21T18:57:01.458Z,37.40
2017-12-21T18:59:30.302Z,40.47
2017-12-21T19:01:59.135Z,39.67
2017-12-21T19:04:27.996Z,39.73
2017-12-21T19:06:57.617Z,37.80
2017-12-21T19:09:26.514Z,30.90
2017-12-21T19:11:55.355Z,34.70
2017-12-21T19:14:24.201Z,31.43
2017-12-21T19:16:53.085Z,32.83
2017-12-21T19:19:21.939Z,31.03
2017-12-21T19:21:51.534Z,33.07
2017-12-21T19:24:22.044Z,29.67
2017-12-21T19:26:50.898Z,31.47
2017-12-21T19:29:19.752Z,32.13
2017-12-21T19:31:49.408Z,34.40
2017-12-21T19:34:18.311Z,34.93
2017-12-21T19:36:47.146Z,34.90
2017-12-21T19:39:16.816Z,32.40
2017-12-21T19:41:45.786Z,34.60
2017-12-21T19:44:14.662Z,30.67
2017-12-21T19:46:43.544Z,30.87
2017-12-21T19:49:13.553Z,31.63
2017-12-21T19:51:43.478Z,31.50
2017-12-21T19:54:12.370Z,37.23
2017-12-21T19:56:41.291Z,33.70
2017-12-21T19:59:10.573Z,25.17
2017-12-21T20:01:39.890Z,39.37
2017-12-21T20:04:08.756Z,34.77
2017-12-21T20:06:37.686Z,41.53
2017-12-21T20:09:06.544Z,34.90
2017-12-21T20:11:35.673Z,39.77
2017-12-21T20:14:04.575Z,36.33
2017-12-21T20:16:34.294Z,36.87
2017-12-21T20:19:03.590Z,34.53
2017-12-21T20:21:32.769Z,29.83
2017-12-21T20:24:01.968Z,37.47
2017-12-21T20:26:31.832Z,37.10
2017-12-21T20:29:00.977Z,36.57
2017-12-21T20:31:29.838Z,36.10
2017-12-21T20:33:58.976Z,36.00
2017-12-21T20:36:28.112Z,37.63
2017-12-21T20:38:58.193Z,33.57
2017-12-21T20:41:28.807Z,40.40
2017-12-21T20:43:58.444Z,38.33
2017-12-21T20:46:28.055Z,37.20
2017-12-21T20:48:57.346Z,37.20
2017-12-21T20:51:28.773Z,36.43
2017-12-21T20:53:58.173Z,37.30
2017-12-21T20:56:27.843Z,36.23
2017-12-21T20:58:57.474Z,35.67
2017-12-21T21:01:26.304Z,33.60
2017-12-21T21:04:02.698Z,34.17
2017-12-21T21:06:36.072Z,36.37
2017-12-21T21:09:05.247Z,36.67
2017-12-21T21:11:36.697Z,34.30
2017-12-21T21:14:06.718Z,33.87
2017-12-21T21:16:36.459Z,32.50
2017-12-21T21:19:06.826Z,32.53
2017-12-21T21:21:35.699Z,32.40
2017-12-21T21:24:04.599Z,33.70
2017-12-21T21:26:33.474Z,32.60
2017-12-21T21:29:03.066Z,33.47
2017-12-21T21:31:32.760Z,36.23
2017-12-21T21:34:02.481Z,34.30
2017-12-21T21:36:32.092Z,33.30
2017-12-21T21:39:02.204Z,33.83
2017-12-21T21:41:31.109Z,32.10
2017-12-21T21:44:01.278Z,36.03
2017-12-21T21:46:30.122Z,33.40
2017-12-21T21:48:58.987Z,33.30
2017-12-21T21:51:28.602Z,35.00
2017-12-21T21:53:58.230Z,33.80
2017-12-21T21:56:27.082Z,34.40
2017-12-21T21:58:55.910Z,33.37
2017-12-21T22:01:24.790Z,36.53
2017-12-21T22:03:53.648Z,38.47
2017-12-21T22:06:23.286Z,37.33
2017-12-21T22:08:52.134Z,38.60
2017-12-21T22:11:21.726Z,35.83
2017-12-21T22:13:52.288Z,39.97
2017-12-21T22:16:21.492Z,40.07
2017-12-21T22:18:50.344Z,39.87
2017-12-21T22:21:19.187Z,40.20
2017-12-21T22:23:48.054Z,42.30
2017-12-21T22:26:16.970Z,45.83
2017-12-21T22:28:45.802Z,43.67
2017-12-21T22:31:15.426Z,41.23
2017-12-21T22:33:45.042Z,39.97
2017-12-21T22:36:14.678Z,41.53
2017-12-21T22:38:43.512Z,39.00
2017-12-21T22:41:13.574Z,39.67
2017-12-21T22:43:42.418Z,41.30
2017-12-21T22:46:12.050Z,41.07
2017-12-21T22:48:41.659Z,42.47
2017-12-21T22:51:11.039Z,40.60
2017-12-21T22:53:39.875Z,40.17
2017-12-21T22:56:08.759Z,48.67
2017-12-21T22:58:37.595Z,43.57
2017-12-21T23:01:06.439Z,45.33
2017-12-21T23:03:35.319Z,46.60
2017-12-21T23:06:04.622Z,44.00
2017-12-21T23:08:33.522Z,43.77
2017-12-21T23:11:02.386Z,40.80
2017-12-21T23:13:31.240Z,46.10
2017-12-21T23:16:00.849Z,45.40
2017-12-21T23:18:29.693Z,45.60
2017-12-21T23:20:58.547Z,46.73
2017-12-21T23:23:28.153Z,43.57
2017-12-21T23:25:57.780Z,46.40
2017-12-21T23:28:26.626Z,46.60
2017-12-21T23:30:55.462Z,44.93
2017-12-21T23:33:24.313Z,46.60
2017-12-21T23:35:53.158Z,41.00
2017-12-21T23:38:22.035Z,45.67
2017-12-21T23:40:50.878Z,45.70
2017-12-21T23:43:19.734Z,48.73
2017-12-21T23:45:48.589Z,46.77
2017-12-21T23:48:18.206Z,47.07
2017-12-21T23:50:47.078Z,45.30
2017-12-21T23:53:17.434Z,49.23
2017-12-21T23:55:46.270Z,47.10
2017-12-21T23:58:15.158Z,49.73
